sensor_id;sensor_type;location;lat;lon;timestamp;P1;durP1;ratioP1;P2;durP2;ratioP2
18651;SDS011;9455;54.302;10.124;2024-02-16T00:02:19;18.90;;;8.53;;
18651;SDS011;9455;54.302;10.124;2024-02-16T00:04:47;17.07;;;9.10;;
18651;SDS011;9455;54.302;10.124;2024-02-16T00:07:16;17.97;;;7.90;;
18651;SDS011;9455;54.302;10.124;2024-02-16T00:09:43;16.37;;;7.77;;
18651;SDS011;9455;54.302;10.124;2024-02-16T00:12:10;16.50;;;7.83;;
18651;SDS011;9455;54.302;10.124;2024-02-16T00:14:39;16.93;;;7.43;;
18651;SDS011;9455;54.302;10.124;2024-02-16T00:17:07;12.17;;;7.20;;
18651;SDS011;9455;54.302;10.124;2024-02-16T00:19:35;12.63;;;7.10;;
18651;SDS011;9455;54.302;10.124;2024-02-16T00:22:02;16.30;;;7.63;;
18651;SDS011;9455;54.302;10.124;2024-02-16T00:24:30;13.00;;;6.53;;
18651;SDS011;9455;54.302;10.124;2024-02-16T00:26:58;15.07;;;6.70;;
18651;SDS011;9455;54.302;10.124;2024-02-16T00:29:25;21.90;;;7.23;;
18651;SDS011;9455;54.302;10.124;2024-02-16T00:31:52;14.10;;;5.87;;
18651;SDS011;9455;54.302;10.124;2024-02-16T00:34:19;18.07;;;6.67;;
18651;SDS011;9455;54.302;10.124;2024-02-16T00:36:46;12.17;;;6.70;;
18651;SDS011;9455;54.302;10.124;2024-02-16T00:39:13;14.03;;;6.73;;
18651;SDS011;9455;54.302;10.124;2024-02-16T00:41:42;12.83;;;7.27;;
18651;SDS011;9455;54.302;10.124;2024-02-16T00:44:10;16.80;;;6.10;;
18651;SDS011;9455;54.302;10.124;2024-02-16T00:46:37;15.70;;;7.03;;
18651;SDS011;9455;54.302;10.124;2024-02-16T00:49:04;10.10;;;6.40;;
18651;SDS011;9455;54.302;10.124;2024-02-16T00:51:35;16.17;;;6.47;;
18651;SDS011;9455;54.302;10.124;2024-02-16T00:54:03;15.17;;;7.33;;
18651;SDS011;9455;54.302;10.124;2024-02-16T00:56:30;15.37;;;6.40;;
18651;SDS011;9455;54.302;10.124;2024-02-16T00:58:59;10.37;;;6.13;;
18651;SDS011;9455;54.302;10.124;2024-02-16T01:01:25;15.83;;;6.37;;
18651;SDS011;9455;54.302;10.124;2024-02-16T01:03:52;9.07;;;6.00;;
18651;SDS011;9455;54.302;10.124;2024-02-16T01:06:19;15.20;;;6.60;;
18651;SDS011;9455;54.302;10.124;2024-02-16T01:08:46;15.30;;;6.43;;
18651;SDS011;9455;54.302;10.124;2024-02-16T01:11:13;14.77;;;6.13;;
18651;SDS011;9455;54.302;10.124;2024-02-16T01:13:40;8.93;;;5.30;;
18651;SDS011;9455;54.302;10.124;2024-02-16T01:16:09;11.20;;;6.40;;
18651;SDS011;9455;54.302;10.124;2024-02-16T01:18:36;11.63;;;5.97;;
18651;SDS011;9455;54.302;10.124;2024-02-16T01:21:03;12.90;;;6.17;;
18651;SDS011;9455;54.302;10.124;2024-02-16T01:23:30;15.57;;;6.17;;
18651;SDS011;9455;54.302;10.124;2024-02-16T01:25:57;14.20;;;6.67;;
18651;SDS011;9455;54.302;10.124;2024-02-16T01:28:24;9.60;;;6.37;;
18651;SDS011;9455;54.302;10.124;2024-02-16T01:30:51;11.70;;;6.63;;
18651;SDS011;9455;54.302;10.124;2024-02-16T01:33:20;20.27;;;6.53;;
18651;SDS011;9455;54.302;10.124;2024-02-16T01:35:47;14.00;;;6.63;;
18651;SDS011;9455;54.302;10.124;2024-02-16T01:38:13;12.73;;;5.93;;
18651;SDS011;9455;54.302;10.124;2024-02-16T01:40:40;15.77;;;5.77;;
18651;SDS011;9455;54.302;10.124;2024-02-16T01:43:07;12.40;;;6.07;;
18651;SDS011;9455;54.302;10.124;2024-02-16T01:45:33;14.93;;;6.40;;
18651;SDS011;9455;54.302;10.124;2024-02-16T01:48:02;12.93;;;6.47;;
18651;SDS011;9455;54.302;10.124;2024-02-16T01:50:31;8.33;;;5.53;;
18651;SDS011;9455;54.302;10.124;2024-02-16T01:52:58;6.43;;;4.87;;
18651;SDS011;9455;54.302;10.124;2024-02-16T01:55:25;8.03;;;5.13;;
18651;SDS011;9455;54.302;10.124;2024-02-16T01:57:52;10.10;;;4.77;;
18651;SDS011;9455;54.302;10.124;2024-02-16T02:00:21;7.20;;;5.03;;
18651;SDS011;9455;54.302;10.124;2024-02-16T02:02:48;10.43;;;5.47;;
18651;SDS011;9455;54.302;10.124;2024-02-16T02:05:15;7.00;;;5.27;;
18651;SDS011;9455;54.302;10.124;2024-02-16T02:07:44;13.87;;;4.80;;
18651;SDS011;9455;54.302;10.124;2024-02-16T02:10:10;12.80;;;5.10;;
18651;SDS011;9455;54.302;10.124;2024-02-16T02:12:38;12.43;;;4.63;;
18651;SDS011;9455;54.302;10.124;2024-02-16T02:15:07;10.23;;;4.90;;
18651;SDS011;9455;54.302;10.124;2024-02-16T02:17:34;9.33;;;4.50;;
18651;SDS011;9455;54.302;10.124;2024-02-16T02:20:02;6.33;;;4.73;;
18651;SDS011;9455;54.302;10.124;2024-02-16T02:22:33;12.47;;;6.07;;
18651;SDS011;9455;54.302;10.124;2024-02-16T02:25:03;10.20;;;4.27;;
18651;SDS011;9455;54.302;10.124;2024-02-16T02:27:31;6.57;;;4.23;;
18651;SDS011;9455;54.302;10.124;2024-02-16T02:29:58;7.87;;;4.30;;
18651;SDS011;9455;54.302;10.124;2024-02-16T02:32:24;7.80;;;4.20;;
18651;SDS011;9455;54.302;10.124;2024-02-16T02:34:51;8.97;;;4.03;;
18651;SDS011;9455;54.302;10.124;2024-02-16T02:37:18;7.67;;;3.47;;
18651;SDS011;9455;54.302;10.124;2024-02-16T02:39:47;8.43;;;3.93;;
18651;SDS011;9455;54.302;10.124;2024-02-16T02:42:15;7.37;;;3.70;;
18651;SDS011;9455;54.302;10.124;2024-02-16T02:44:42;6.67;;;3.60;;
18651;SDS011;9455;54.302;10.124;2024-02-16T02:47:15;16.57;;;3.17;;
18651;SDS011;9455;54.302;10.124;2024-02-16T02:49:43;5.00;;;3.20;;
18651;SDS011;9455;54.302;10.124;2024-02-16T02:52:09;10.80;;;3.03;;
18651;SDS011;9455;54.302;10.124;2024-02-16T02:54:36;4.17;;;3.10;;
18651;SDS011;9455;54.302;10.124;2024-02-16T02:57:05;5.87;;;2.97;;
18651;SDS011;9455;54.302;10.124;2024-02-16T02:59:32;4.27;;;2.87;;
18651;SDS011;9455;54.302;10.124;2024-02-16T03:01:59;4.60;;;3.13;;
18651;SDS011;9455;54.302;10.124;2024-02-16T03:04:26;3.20;;;2.93;;
18651;SDS011;9455;54.302;10.124;2024-02-16T03:06:53;6.60;;;2.90;;
18651;SDS011;9455;54.302;10.124;2024-02-16T03:09:20;3.17;;;2.87;;
18651;SDS011;9455;54.302;10.124;2024-02-16T03:11:47;5.10;;;2.87;;
18651;SDS011;9455;54.302;10.124;2024-02-16T03:14:16;3.87;;;2.73;;
18651;SDS011;9455;54.302;10.124;2024-02-16T03:16:43;3.47;;;2.80;;
18651;SDS011;9455;54.302;10.124;2024-02-16T03:19:10;3.27;;;2.80;;
18651;SDS011;9455;54.302;10.124;2024-02-16T03:21:40;7.00;;;3.03;;
18651;SDS011;9455;54.302;10.124;2024-02-16T03:24:09;7.97;;;3.00;;
18651;SDS011;9455;54.302;10.124;2024-02-16T03:26:36;2.63;;;2.43;;
18651;SDS011;9455;54.302;10.124;2024-02-16T03:29:03;3.37;;;2.57;;
18651;SDS011;9455;54.302;10.124;2024-02-16T03:31:33;6.57;;;2.40;;
18651;SDS011;9455;54.302;10.124;2024-02-16T03:34:00;5.93;;;3.17;;
18651;SDS011;9455;54.302;10.124;2024-02-16T03:36:27;6.13;;;2.50;;
18651;SDS011;9455;54.302;10.124;2024-02-16T03:38:55;6.67;;;2.80;;
18651;SDS011;9455;54.302;10.124;2024-02-16T03:41:22;5.37;;;3.03;;
18651;SDS011;9455;54.302;10.124;2024-02-16T03:43:50;6.70;;;2.70;;
18651;SDS011;9455;54.302;10.124;2024-02-16T03:46:19;3.53;;;2.97;;
18651;SDS011;9455;54.302;10.124;2024-02-16T03:48:47;3.07;;;2.03;;
18651;SDS011;9455;54.302;10.124;2024-02-16T03:51:14;3.33;;;2.30;;
18651;SDS011;9455;54.302;10.124;2024-02-16T03:53:41;2.27;;;2.17;;
18651;SDS011;9455;54.302;10.124;2024-02-16T03:56:09;8.67;;;2.47;;
18651;SDS011;9455;54.302;10.124;2024-02-16T03:58:37;8.77;;;3.20;;
18651;SDS011;9455;54.302;10.124;2024-02-16T04:01:04;7.83;;;2.43;;
18651;SDS011;9455;54.302;10.124;2024-02-16T04:03:31;2.43;;;2.27;;
18651;SDS011;9455;54.302;10.124;2024-02-16T04:06:00;5.93;;;2.60;;
18651;SDS011;9455;54.302;10.124;2024-02-16T04:08:29;8.13;;;2.33;;
18651;SDS011;9455;54.302;10.124;2024-02-16T04:10:56;5.43;;;2.23;;
18651;SDS011;9455;54.302;10.124;2024-02-16T04:13:23;3.03;;;2.83;;
18651;SDS011;9455;54.302;10.124;2024-02-16T04:15:50;6.00;;;2.33;;
18651;SDS011;9455;54.302;10.124;2024-02-16T04:18:17;4.33;;;2.50;;
18651;SDS011;9455;54.302;10.124;2024-02-16T04:20:44;6.60;;;2.80;;
18651;SDS011;9455;54.302;10.124;2024-02-16T04:23:13;5.80;;;2.83;;
18651;SDS011;9455;54.302;10.124;2024-02-16T04:25:39;4.90;;;2.73;;
18651;SDS011;9455;54.302;10.124;2024-02-16T04:28:06;4.30;;;2.47;;
18651;SDS011;9455;54.302;10.124;2024-02-16T04:30:33;3.43;;;2.80;;
18651;SDS011;9455;54.302;10.124;2024-02-16T04:33:00;10.53;;;3.30;;
18651;SDS011;9455;54.302;10.124;2024-02-16T04:35:29;4.30;;;2.53;;
18651;SDS011;9455;54.302;10.124;2024-02-16T04:37:56;2.33;;;2.13;;
18651;SDS011;9455;54.302;10.124;2024-02-16T04:40:24;4.60;;;2.10;;
18651;SDS011;9455;54.302;10.124;2024-02-16T04:42:51;2.67;;;2.10;;
18651;SDS011;9455;54.302;10.124;2024-02-16T04:45:18;3.27;;;2.13;;
18651;SDS011;9455;54.302;10.124;2024-02-16T04:47:46;4.93;;;2.17;;
18651;SDS011;9455;54.302;10.124;2024-02-16T04:50:13;7.47;;;2.17;;
18651;SDS011;9455;54.302;10.124;2024-02-16T04:52:40;6.27;;;2.40;;
18651;SDS011;9455;54.302;10.124;2024-02-16T04:55:09;6.73;;;2.37;;
18651;SDS011;9455;54.302;10.124;2024-02-16T04:57:37;3.80;;;2.20;;
18651;SDS011;9455;54.302;10.124;2024-02-16T05:00:04;5.23;;;2.13;;
18651;SDS011;9455;54.302;10.124;2024-02-16T05:02:34;3.37;;;1.93;;
18651;SDS011;9455;54.302;10.124;2024-02-16T05:05:01;6.10;;;2.43;;
18651;SDS011;9455;54.302;10.124;2024-02-16T05:07:28;2.17;;;2.07;;
18651;SDS011;9455;54.302;10.124;2024-02-16T05:09:56;3.13;;;2.03;;
18651;SDS011;9455;54.302;10.124;2024-02-16T05:12:23;4.67;;;2.20;;
18651;SDS011;9455;54.302;10.124;2024-02-16T05:14:51;3.73;;;2.70;;
18651;SDS011;9455;54.302;10.124;2024-02-16T05:17:18;6.53;;;2.10;;
18651;SDS011;9455;54.302;10.124;2024-02-16T05:19:47;3.23;;;2.30;;
18651;SDS011;9455;54.302;10.124;2024-02-16T05:22:14;5.67;;;2.50;;
18651;SDS011;9455;54.302;10.124;2024-02-16T05:24:43;5.40;;;2.10;;
18651;SDS011;9455;54.302;10.124;2024-02-16T05:27:10;2.20;;;2.00;;
18651;SDS011;9455;54.302;10.124;2024-02-16T05:29:36;6.43;;;2.57;;
18651;SDS011;9455;54.302;10.124;2024-02-16T05:32:05;6.40;;;2.10;;
18651;SDS011;9455;54.302;10.124;2024-02-16T05:34:32;9.07;;;2.27;;
18651;SDS011;9455;54.302;10.124;2024-02-16T05:37:03;5.87;;;2.13;;
18651;SDS011;9455;54.302;10.124;2024-02-16T05:39:31;2.93;;;2.13;;
18651;SDS011;9455;54.302;10.124;2024-02-16T05:42:01;3.07;;;2.70;;
18651;SDS011;9455;54.302;10.124;2024-02-16T05:44:28;3.97;;;2.70;;
18651;SDS011;9455;54.302;10.124;2024-02-16T05:46:57;2.90;;;2.17;;
18651;SDS011;9455;54.302;10.124;2024-02-16T05:49:28;3.50;;;2.10;;
18651;SDS011;9455;54.302;10.124;2024-02-16T05:51:55;4.40;;;2.50;;
18651;SDS011;9455;54.302;10.124;2024-02-16T05:54:41;2.50;;;2.30;;
18651;SDS011;9455;54.302;10.124;2024-02-16T05:57:08;3.20;;;1.80;;
18651;SDS011;9455;54.302;10.124;2024-02-16T05:59:35;2.03;;;1.93;;
18651;SDS011;9455;54.302;10.124;2024-02-16T06:02:03;2.13;;;2.03;;
18651;SDS011;9455;54.302;10.124;2024-02-16T06:04:34;10.87;;;2.37;;
18651;SDS011;9455;54.302;10.124;2024-02-16T06:07:01;2.60;;;1.90;;
18651;SDS011;9455;54.302;10.124;2024-02-16T06:09:27;2.50;;;2.30;;
18651;SDS011;9455;54.302;10.124;2024-02-16T06:12:00;6.43;;;2.93;;
18651;SDS011;9455;54.302;10.124;2024-02-16T06:14:30;4.33;;;2.00;;
18651;SDS011;9455;54.302;10.124;2024-02-16T06:16:57;3.20;;;2.40;;
18651;SDS011;9455;54.302;10.124;2024-02-16T06:19:24;2.60;;;2.17;;
18651;SDS011;9455;54.302;10.124;2024-02-16T06:21:53;3.47;;;2.53;;
18651;SDS011;9455;54.302;10.124;2024-02-16T06:24:20;6.60;;;2.13;;
18651;SDS011;9455;54.302;10.124;2024-02-16T06:26:52;4.50;;;2.30;;
18651;SDS011;9455;54.302;10.124;2024-02-16T06:29:19;2.63;;;2.47;;
18651;SDS011;9455;54.302;10.124;2024-02-16T06:31:46;2.07;;;1.97;;
18651;SDS011;9455;54.302;10.124;2024-02-16T06:34:13;2.23;;;2.03;;
18651;SDS011;9455;54.302;10.124;2024-02-16T06:36:39;11.50;;;2.63;;
18651;SDS011;9455;54.302;10.124;2024-02-16T06:39:08;3.30;;;2.00;;
18651;SDS011;9455;54.302;10.124;2024-02-16T06:41:41;3.50;;;2.00;;
18651;SDS011;9455;54.302;10.124;2024-02-16T06:44:09;2.87;;;2.43;;
18651;SDS011;9455;54.302;10.124;2024-02-16T06:46:36;2.23;;;2.13;;
18651;SDS011;9455;54.302;10.124;2024-02-16T06:49:03;6.83;;;3.30;;
18651;SDS011;9455;54.302;10.124;2024-02-16T06:51:30;8.13;;;2.37;;
18651;SDS011;9455;54.302;10.124;2024-02-16T06:53:57;5.80;;;2.77;;
18651;SDS011;9455;54.302;10.124;2024-02-16T06:56:25;5.33;;;2.53;;
18651;SDS011;9455;54.302;10.124;2024-02-16T06:58:52;6.30;;;2.20;;
18651;SDS011;9455;54.302;10.124;2024-02-16T07:01:19;2.83;;;2.33;;
18651;SDS011;9455;54.302;10.124;2024-02-16T07:03:47;3.83;;;3.13;;
18651;SDS011;9455;54.302;10.124;2024-02-16T07:06:14;5.57;;;2.40;;
18651;SDS011;9455;54.302;10.124;2024-02-16T07:08:43;9.80;;;2.17;;
18651;SDS011;9455;54.302;10.124;2024-02-16T07:11:10;11.93;;;3.03;;
18651;SDS011;9455;54.302;10.124;2024-02-16T07:13:39;4.87;;;2.80;;
18651;SDS011;9455;54.302;10.124;2024-02-16T07:16:07;5.13;;;2.20;;
18651;SDS011;9455;54.302;10.124;2024-02-16T07:18:35;4.17;;;3.10;;
18651;SDS011;9455;54.302;10.124;2024-02-16T07:21:02;4.97;;;2.80;;
18651;SDS011;9455;54.302;10.124;2024-02-16T07:23:29;2.90;;;2.73;;
18651;SDS011;9455;54.302;10.124;2024-02-16T07:25:56;4.43;;;2.60;;
18651;SDS011;9455;54.302;10.124;2024-02-16T07:28:23;8.93;;;2.60;;
18651;SDS011;9455;54.302;10.124;2024-02-16T07:30:51;3.87;;;2.33;;
18651;SDS011;9455;54.302;10.124;2024-02-16T07:33:19;6.63;;;3.07;;
18651;SDS011;9455;54.302;10.124;2024-02-16T07:35:46;5.00;;;3.07;;
18651;SDS011;9455;54.302;10.124;2024-02-16T07:38:13;6.20;;;3.10;;
18651;SDS011;9455;54.302;10.124;2024-02-16T07:40:40;4.53;;;1.93;;
18651;SDS011;9455;54.302;10.124;2024-02-16T07:43:07;3.80;;;2.70;;
18651;SDS011;9455;54.302;10.124;2024-02-16T07:45:34;2.00;;;1.80;;
18651;SDS011;9455;54.302;10.124;2024-02-16T07:48:03;7.07;;;2.37;;
18651;SDS011;9455;54.302;10.124;2024-02-16T07:50:33;2.30;;;1.83;;
18651;SDS011;9455;54.302;10.124;2024-02-16T07:53:00;4.43;;;1.97;;
18651;SDS011;9455;54.302;10.124;2024-02-16T07:55:26;3.23;;;2.30;;
18651;SDS011;9455;54.302;10.124;2024-02-16T07:57:54;7.60;;;2.47;;
18651;SDS011;9455;54.302;10.124;2024-02-16T08:00:23;4.23;;;2.50;;
18651;SDS011;9455;54.302;10.124;2024-02-16T08:02:50;3.30;;;2.17;;
18651;SDS011;9455;54.302;10.124;2024-02-16T08:05:20;5.63;;;2.40;;
18651;SDS011;9455;54.302;10.124;2024-02-16T08:07:49;2.90;;;2.67;;
18651;SDS011;9455;54.302;10.124;2024-02-16T08:10:18;2.10;;;1.93;;
18651;SDS011;9455;54.302;10.124;2024-02-16T08:12:50;3.47;;;2.17;;
18651;SDS011;9455;54.302;10.124;2024-02-16T08:15:17;2.70;;;2.30;;
18651;SDS011;9455;54.302;10.124;2024-02-16T08:17:48;8.13;;;2.00;;
18651;SDS011;9455;54.302;10.124;2024-02-16T08:20:17;2.33;;;2.17;;
18651;SDS011;9455;54.302;10.124;2024-02-16T08:22:47;3.57;;;1.93;;
18651;SDS011;9455;54.302;10.124;2024-02-16T08:25:14;1.60;;;1.50;;
18651;SDS011;9455;54.302;10.124;2024-02-16T08:27:41;4.17;;;2.20;;
18651;SDS011;9455;54.302;10.124;2024-02-16T08:30:08;4.23;;;1.90;;
18651;SDS011;9455;54.302;10.124;2024-02-16T08:32:36;5.23;;;2.10;;
18651;SDS011;9455;54.302;10.124;2024-02-16T08:35:03;4.10;;;1.70;;
18651;SDS011;9455;54.302;10.124;2024-02-16T08:37:32;6.67;;;2.33;;
18651;SDS011;9455;54.302;10.124;2024-02-16T08:40:02;2.53;;;2.27;;
18651;SDS011;9455;54.302;10.124;2024-02-16T08:42:29;1.90;;;1.80;;
18651;SDS011;9455;54.302;10.124;2024-02-16T08:44:57;2.00;;;1.90;;
18651;SDS011;9455;54.302;10.124;2024-02-16T08:47:25;2.27;;;2.07;;
18651;SDS011;9455;54.302;10.124;2024-02-16T08:49:52;2.77;;;2.17;;
18651;SDS011;9455;54.302;10.124;2024-02-16T08:52:20;4.47;;;2.20;;
18651;SDS011;9455;54.302;10.124;2024-02-16T08:54:47;2.17;;;2.00;;
18651;SDS011;9455;54.302;10.124;2024-02-16T08:57:16;3.37;;;1.93;;
18651;SDS011;9455;54.302;10.124;2024-02-16T08:59:43;5.90;;;2.13;;
18651;SDS011;9455;54.302;10.124;2024-02-16T09:02:10;9.13;;;4.57;;
18651;SDS011;9455;54.302;10.124;2024-02-16T09:04:37;3.17;;;2.10;;
18651;SDS011;9455;54.302;10.124;2024-02-16T09:07:05;2.50;;;2.30;;
18651;SDS011;9455;54.302;10.124;2024-02-16T09:09:32;2.90;;;1.47;;
18651;SDS011;9455;54.302;10.124;2024-02-16T09:12:01;7.57;;;2.00;;
18651;SDS011;9455;54.302;10.124;2024-02-16T09:14:31;5.80;;;1.80;;
18651;SDS011;9455;54.302;10.124;2024-02-16T09:16:58;9.53;;;2.37;;
18651;SDS011;9455;54.302;10.124;2024-02-16T09:19:28;1.67;;;1.57;;
18651;SDS011;9455;54.302;10.124;2024-02-16T09:21:55;1.97;;;1.87;;
18651;SDS011;9455;54.302;10.124;2024-02-16T09:24:23;1.50;;;1.40;;
18651;SDS011;9455;54.302;10.124;2024-02-16T09:26:54;4.73;;;1.50;;
18651;SDS011;9455;54.302;10.124;2024-02-16T09:29:23;2.43;;;1.97;;
18651;SDS011;9455;54.302;10.124;2024-02-16T09:31:52;1.70;;;1.60;;
18651;SDS011;9455;54.302;10.124;2024-02-16T09:34:22;2.70;;;2.30;;
18651;SDS011;9455;54.302;10.124;2024-02-16T09:36:52;4.80;;;1.63;;
18651;SDS011;9455;54.302;10.124;2024-02-16T09:39:18;6.90;;;1.50;;
18651;SDS011;9455;54.302;10.124;2024-02-16T09:41:47;3.33;;;1.67;;
18651;SDS011;9455;54.302;10.124;2024-02-16T09:44:17;6.60;;;2.20;;
18651;SDS011;9455;54.302;10.124;2024-02-16T09:46:45;1.93;;;1.83;;
18651;SDS011;9455;54.302;10.124;2024-02-16T09:49:13;8.10;;;1.77;;
18651;SDS011;9455;54.302;10.124;2024-02-16T09:51:39;2.67;;;1.70;;
18651;SDS011;9455;54.302;10.124;2024-02-16T09:54:08;2.20;;;1.57;;
18651;SDS011;9455;54.302;10.124;2024-02-16T09:56:37;2.43;;;1.40;;
18651;SDS011;9455;54.302;10.124;2024-02-16T09:59:05;2.40;;;1.67;;
18651;SDS011;9455;54.302;10.124;2024-02-16T10:01:33;1.67;;;1.50;;
18651;SDS011;9455;54.302;10.124;2024-02-16T10:04:06;2.27;;;1.80;;
18651;SDS011;9455;54.302;10.124;2024-02-16T10:06:39;6.33;;;1.70;;
18651;SDS011;9455;54.302;10.124;2024-02-16T10:09:22;2.07;;;1.57;;
18651;SDS011;9455;54.302;10.124;2024-02-16T10:11:50;3.70;;;1.70;;
18651;SDS011;9455;54.302;10.124;2024-02-16T10:14:17;1.83;;;1.30;;
18651;SDS011;9455;54.302;10.124;2024-02-16T10:16:45;2.77;;;1.50;;
18651;SDS011;9455;54.302;10.124;2024-02-16T10:19:12;4.27;;;1.87;;
18651;SDS011;9455;54.302;10.124;2024-02-16T10:21:41;3.53;;;1.73;;
18651;SDS011;9455;54.302;10.124;2024-02-16T10:24:08;3.73;;;2.03;;
18651;SDS011;9455;54.302;10.124;2024-02-16T10:26:36;2.07;;;1.97;;
18651;SDS011;9455;54.302;10.124;2024-02-16T10:29:04;5.27;;;2.80;;
18651;SDS011;9455;54.302;10.124;2024-02-16T10:31:35;2.73;;;1.57;;
18651;SDS011;9455;54.302;10.124;2024-02-16T10:34:05;1.63;;;1.33;;
18651;SDS011;9455;54.302;10.124;2024-02-16T10:36:36;2.60;;;1.13;;
18651;SDS011;9455;54.302;10.124;2024-02-16T10:39:06;1.37;;;1.37;;
18651;SDS011;9455;54.302;10.124;2024-02-16T10:41:37;1.97;;;1.73;;
18651;SDS011;9455;54.302;10.124;2024-02-16T10:44:04;1.20;;;1.10;;
18651;SDS011;9455;54.302;10.124;2024-02-16T10:46:32;3.10;;;1.13;;
18651;SDS011;9455;54.302;10.124;2024-02-16T10:48:59;6.87;;;1.60;;
18651;SDS011;9455;54.302;10.124;2024-02-16T10:51:30;5.97;;;1.70;;
18651;SDS011;9455;54.302;10.124;2024-02-16T10:54:03;2.60;;;1.70;;
18651;SDS011;9455;54.302;10.124;2024-02-16T10:56:36;5.60;;;1.43;;
18651;SDS011;9455;54.302;10.124;2024-02-16T10:59:03;5.30;;;1.73;;
18651;SDS011;9455;54.302;10.124;2024-02-16T11:01:32;2.53;;;1.53;;
18651;SDS011;9455;54.302;10.124;2024-02-16T11:04:05;2.83;;;1.90;;
18651;SDS011;9455;54.302;10.124;2024-02-16T11:06:47;4.50;;;1.57;;
18651;SDS011;9455;54.302;10.124;2024-02-16T11:09:25;3.40;;;1.63;;
18651;SDS011;9455;54.302;10.124;2024-02-16T11:11:59;7.20;;;1.87;;
18651;SDS011;9455;54.302;10.124;2024-02-16T11:14:33;2.50;;;1.40;;
18651;SDS011;9455;54.302;10.124;2024-02-16T11:17:01;3.13;;;1.37;;
18651;SDS011;9455;54.302;10.124;2024-02-16T11:19:29;4.53;;;2.40;;
18651;SDS011;9455;54.302;10.124;2024-02-16T11:21:57;1.73;;;1.60;;
18651;SDS011;9455;54.302;10.124;2024-02-16T11:24:31;1.53;;;1.43;;
18651;SDS011;9455;54.302;10.124;2024-02-16T11:27:04;5.80;;;1.43;;
18651;SDS011;9455;54.302;10.124;2024-02-16T11:29:32;1.40;;;1.30;;
18651;SDS011;9455;54.302;10.124;2024-02-16T11:32:01;5.17;;;1.40;;
18651;SDS011;9455;54.302;10.124;2024-02-16T11:34:29;2.93;;;1.60;;
18651;SDS011;9455;54.302;10.124;2024-02-16T11:36:56;1.20;;;1.20;;
18651;SDS011;9455;54.302;10.124;2024-02-16T11:39:26;4.50;;;2.30;;
18651;SDS011;9455;54.302;10.124;2024-02-16T11:42:01;1.80;;;1.30;;
18651;SDS011;9455;54.302;10.124;2024-02-16T11:44:30;4.23;;;2.00;;
18651;SDS011;9455;54.302;10.124;2024-02-16T11:46:59;2.67;;;1.80;;
18651;SDS011;9455;54.302;10.124;2024-02-16T11:49:26;2.03;;;1.57;;
18651;SDS011;9455;54.302;10.124;2024-02-16T11:51:54;1.47;;;1.37;;
18651;SDS011;9455;54.302;10.124;2024-02-16T11:54:21;4.90;;;1.83;;
18651;SDS011;9455;54.302;10.124;2024-02-16T11:56:48;4.57;;;1.70;;
18651;SDS011;9455;54.302;10.124;2024-02-16T11:59:18;31.10;;;6.60;;
18651;SDS011;9455;54.302;10.124;2024-02-16T12:01:51;4.97;;;2.37;;
18651;SDS011;9455;54.302;10.124;2024-02-16T12:04:20;4.83;;;2.20;;
18651;SDS011;9455;54.302;10.124;2024-02-16T12:06:52;5.50;;;2.17;;
18651;SDS011;9455;54.302;10.124;2024-02-16T12:09:21;12.03;;;3.43;;
18651;SDS011;9455;54.302;10.124;2024-02-16T12:11:50;6.17;;;2.03;;
18651;SDS011;9455;54.302;10.124;2024-02-16T12:14:18;13.43;;;2.03;;
18651;SDS011;9455;54.302;10.124;2024-02-16T12:16:47;2.40;;;1.70;;
18651;SDS011;9455;54.302;10.124;2024-02-16T12:19:18;1.87;;;1.70;;
18651;SDS011;9455;54.302;10.124;2024-02-16T12:21:48;2.93;;;1.67;;
18651;SDS011;9455;54.302;10.124;2024-02-16T12:24:15;4.57;;;2.23;;
18651;SDS011;9455;54.302;10.124;2024-02-16T12:26:42;4.70;;;2.10;;
18651;SDS011;9455;54.302;10.124;2024-02-16T12:29:09;2.53;;;2.30;;
18651;SDS011;9455;54.302;10.124;2024-02-16T12:31:37;4.97;;;2.30;;
18651;SDS011;9455;54.302;10.124;2024-02-16T12:34:06;6.87;;;2.13;;
18651;SDS011;9455;54.302;10.124;2024-02-16T12:36:36;2.67;;;2.03;;
18651;SDS011;9455;54.302;10.124;2024-02-16T12:39:05;2.67;;;2.20;;
18651;SDS011;9455;54.302;10.124;2024-02-16T12:41:34;6.60;;;2.27;;
18651;SDS011;9455;54.302;10.124;2024-02-16T12:44:01;2.20;;;1.80;;
18651;SDS011;9455;54.302;10.124;2024-02-16T12:46:30;4.00;;;2.30;;
18651;SDS011;9455;54.302;10.124;2024-02-16T12:48:59;4.50;;;2.20;;
18651;SDS011;9455;54.302;10.124;2024-02-16T12:51:26;2.40;;;2.17;;
18651;SDS011;9455;54.302;10.124;2024-02-16T12:53:58;4.93;;;4.13;;
18651;SDS011;9455;54.302;10.124;2024-02-16T12:56:30;3.40;;;2.53;;
18651;SDS011;9455;54.302;10.124;2024-02-16T12:58:59;6.50;;;2.73;;
18651;SDS011;9455;54.302;10.124;2024-02-16T13:01:27;3.60;;;2.23;;
18651;SDS011;9455;54.302;10.124;2024-02-16T13:03:54;2.20;;;2.00;;
18651;SDS011;9455;54.302;10.124;2024-02-16T13:06:22;2.63;;;2.33;;
18651;SDS011;9455;54.302;10.124;2024-02-16T13:08:55;2.83;;;2.13;;
18651;SDS011;9455;54.302;10.124;2024-02-16T13:11:23;5.10;;;2.43;;
18651;SDS011;9455;54.302;10.124;2024-02-16T13:13:52;5.20;;;2.47;;
18651;SDS011;9455;54.302;10.124;2024-02-16T13:16:19;3.43;;;2.37;;
18651;SDS011;9455;54.302;10.124;2024-02-16T13:18:46;4.67;;;3.00;;
18651;SDS011;9455;54.302;10.124;2024-02-16T13:21:13;3.53;;;2.70;;
18651;SDS011;9455;54.302;10.124;2024-02-16T13:23:40;5.00;;;3.40;;
18651;SDS011;9455;54.302;10.124;2024-02-16T13:26:07;5.90;;;2.83;;
18651;SDS011;9455;54.302;10.124;2024-02-16T13:28:35;5.07;;;2.90;;
18651;SDS011;9455;54.302;10.124;2024-02-16T13:31:03;4.47;;;2.60;;
18651;SDS011;9455;54.302;10.124;2024-02-16T13:33:30;6.87;;;3.07;;
18651;SDS011;9455;54.302;10.124;2024-02-16T13:35:56;5.33;;;3.40;;
18651;SDS011;9455;54.302;10.124;2024-02-16T13:38:23;5.60;;;3.00;;
18651;SDS011;9455;54.302;10.124;2024-02-16T13:40:50;3.57;;;3.03;;
18651;SDS011;9455;54.302;10.124;2024-02-16T13:43:17;4.20;;;3.10;;
18651;SDS011;9455;54.302;10.124;2024-02-16T13:45:59;3.53;;;2.80;;
18651;SDS011;9455;54.302;10.124;2024-02-16T13:48:27;3.90;;;2.33;;
18651;SDS011;9455;54.302;10.124;2024-02-16T13:50:55;5.47;;;3.00;;
18651;SDS011;9455;54.302;10.124;2024-02-16T13:53:22;10.30;;;4.30;;
18651;SDS011;9455;54.302;10.124;2024-02-16T13:55:49;6.77;;;3.50;;
18651;SDS011;9455;54.302;10.124;2024-02-16T13:58:15;5.93;;;3.20;;
18651;SDS011;9455;54.302;10.124;2024-02-16T14:00:43;3.40;;;3.10;;
18651;SDS011;9455;54.302;10.124;2024-02-16T14:03:12;9.13;;;2.97;;
18651;SDS011;9455;54.302;10.124;2024-02-16T14:05:40;5.17;;;3.13;;
18651;SDS011;9455;54.302;10.124;2024-02-16T14:08:10;4.23;;;3.13;;
18651;SDS011;9455;54.302;10.124;2024-02-16T14:10:37;2.93;;;2.60;;
18651;SDS011;9455;54.302;10.124;2024-02-16T14:13:04;6.00;;;3.27;;
18651;SDS011;9455;54.302;10.124;2024-02-16T14:15:31;7.50;;;4.13;;
18651;SDS011;9455;54.302;10.124;2024-02-16T14:17:58;5.53;;;4.00;;
18651;SDS011;9455;54.302;10.124;2024-02-16T14:20:28;3.20;;;2.90;;
18651;SDS011;9455;54.302;10.124;2024-02-16T14:22:55;7.63;;;4.40;;
18651;SDS011;9455;54.302;10.124;2024-02-16T14:25:22;5.87;;;3.63;;
18651;SDS011;9455;54.302;10.124;2024-02-16T14:27:50;4.27;;;3.63;;
18651;SDS011;9455;54.302;10.124;2024-02-16T14:30:17;7.43;;;3.47;;
18651;SDS011;9455;54.302;10.124;2024-02-16T14:32:46;5.80;;;4.33;;
18651;SDS011;9455;54.302;10.124;2024-02-16T14:35:12;8.93;;;6.70;;
18651;SDS011;9455;54.302;10.124;2024-02-16T14:37:40;6.83;;;4.70;;
18651;SDS011;9455;54.302;10.124;2024-02-16T14:40:10;5.77;;;4.23;;
18651;SDS011;9455;54.302;10.124;2024-02-16T14:42:38;9.70;;;4.07;;
18651;SDS011;9455;54.302;10.124;2024-02-16T14:45:05;5.33;;;4.27;;
18651;SDS011;9455;54.302;10.124;2024-02-16T14:47:35;10.53;;;4.63;;
18651;SDS011;9455;54.302;10.124;2024-02-16T14:50:02;12.67;;;4.90;;
18651;SDS011;9455;54.302;10.124;2024-02-16T14:52:30;7.83;;;4.73;;